sensor_id;sensor_type;location;lat;lon;timestamp;pressure;altitude;pressure_sealevel;temperature;humidity
22688;BME280;11511;51.514;7.080;2022-11-18T00:01:36;99114.16;;;6.79;100.00
22688;BME280;11511;51.514;7.080;2022-11-18T00:04:01;99115.91;;;6.79;100.00
22688;BME280;11511;51.514;7.080;2022-11-18T00:06:28;99117.69;;;6.78;100.00
22688;BME280;11511;51.514;7.080;2022-11-18T00:08:54;99127.94;;;6.83;100.00
22688;BME280;11511;51.514;7.080;2022-11-18T00:11:23;99124.47;;;6.83;100.00
22688;BME280;11511;51.514;7.080;2022-11-18T00:14:16;99131.63;;;6.79;100.00
22688;BME280;11511;51.514;7.080;2022-11-18T00:16:53;99138.25;;;6.86;100.00
22688;BME280;11511;51.514;7.080;2022-11-18T00:19:21;99139.09;;;6.87;100.00
22688;BME280;11511;51.514;7.080;2022-11-18T00:21:47;99137.06;;;6.93;100.00
22688;BME280;11511;51.514;7.080;2022-11-18T00:24:13;99136.09;;;6.96;100.00
22688;BME280;11511;51.514;7.080;2022-11-18T00:26:39;99136.22;;;6.93;100.00
22688;BME280;11511;51.514;7.080;2022-11-18T00:29:04;99143.16;;;6.94;100.00
22688;BME280;11511;51.514;7.080;2022-11-18T00:31:30;99124.63;;;6.98;100.00
22688;BME280;11511;51.514;7.080;2022-11-18T00:33:56;99137.06;;;6.93;100.00
22688;BME280;11511;51.514;7.080;2022-11-18T00:36:22;99140.66;;;6.91;100.00
22688;BME280;11511;51.514;7.080;2022-11-18T00:38:47;99139.94;;;6.87;100.00
22688;BME280;11511;51.514;7.080;2022-11-18T00:41:14;99145.00;;;6.92;100.00
22688;BME280;11511;51.514;7.080;2022-11-18T00:43:40;99149.31;;;6.93;100.00
22688;BME280;11511;51.514;7.080;2022-11-18T00:46:09;99143.09;;;6.95;100.00
22688;BME280;11511;51.514;7.080;2022-11-18T00:48:35;99144.06;;;6.93;100.00
22688;BME280;11511;51.514;7.080;2022-11-18T00:51:10;99139.03;;;6.88;100.00
22688;BME280;11511;51.514;7.080;2022-11-18T00:53:38;99138.84;;;6.93;100.00
22688;BME280;11511;51.514;7.080;2022-11-18T00:56:04;99145.25;;;6.86;100.00
22688;BME280;11511;51.514;7.080;2022-11-18T00:58:30;99146.28;;;7.02;100.00
22688;BME280;11511;51.514;7.080;2022-11-18T01:00:56;99143.66;;;7.02;100.00
22688;BME280;11511;51.514;7.080;2022-11-18T01:03:22;99140.97;;;7.03;100.00
22688;BME280;11511;51.514;7.080;2022-11-18T01:05:49;99145.03;;;7.10;100.00
22688;BME280;11511;51.514;7.080;2022-11-18T01:08:14;99155.69;;;7.06;100.00
22688;BME280;11511;51.514;7.080;2022-11-18T01:10:40;99155.56;;;7.09;100.00
22688;BME280;11511;51.514;7.080;2022-11-18T01:13:09;99157.88;;;6.96;100.00
22688;BME280;11511;51.514;7.080;2022-11-18T01:15:48;99163.50;;;6.87;100.00
22688;BME280;11511;51.514;7.080;2022-11-18T01:18:15;99152.41;;;6.82;100.00
22688;BME280;11511;51.514;7.080;2022-11-18T01:20:41;99170.50;;;6.87;100.00
22688;BME280;11511;51.514;7.080;2022-11-18T01:23:07;99168.81;;;6.86;100.00
22688;BME280;11511;51.514;7.080;2022-11-18T01:25:35;99177.50;;;6.86;100.00
22688;BME280;11511;51.514;7.080;2022-11-18T01:28:02;99171.66;;;6.81;100.00
22688;BME280;11511;51.514;7.080;2022-11-18T01:30:28;99170.03;;;6.78;100.00
22688;BME280;11511;51.514;7.080;2022-11-18T01:32:54;99179.97;;;6.70;100.00
22688;BME280;11511;51.514;7.080;2022-11-18T01:35:19;99177.88;;;6.58;100.00
22688;BME280;11511;51.514;7.080;2022-11-18T01:37:46;99179.38;;;6.64;100.00
22688;BME280;11511;51.514;7.080;2022-11-18T01:40:13;99189.41;;;6.54;100.00
22688;BME280;11511;51.514;7.080;2022-11-18T01:42:40;99183.81;;;6.41;100.00
22688;BME280;11511;51.514;7.080;2022-11-18T01:48:10;99179.94;;;6.30;100.00
22688;BME280;11511;51.514;7.080;2022-11-18T01:50:50;99193.19;;;6.27;100.00
22688;BME280;11511;51.514;7.080;2022-11-18T01:53:26;99191.72;;;6.20;100.00
22688;BME280;11511;51.514;7.080;2022-11-18T01:55:56;99186.44;;;6.21;100.00
22688;BME280;11511;51.514;7.080;2022-11-18T01:58:35;99188.31;;;6.18;100.00
22688;BME280;11511;51.514;7.080;2022-11-18T02:01:04;99203.72;;;6.45;100.00
22688;BME280;11511;51.514;7.080;2022-11-18T02:03:31;99193.78;;;6.54;100.00
22688;BME280;11511;51.514;7.080;2022-11-18T02:05:58;99198.53;;;6.64;100.00
22688;BME280;11511;51.514;7.080;2022-11-18T02:08:24;99208.22;;;6.62;100.00
22688;BME280;11511;51.514;7.080;2022-11-18T02:10:50;99202.59;;;6.71;100.00
22688;BME280;11511;51.514;7.080;2022-11-18T02:13:16;99212.47;;;6.44;100.00
22688;BME280;11511;51.514;7.080;2022-11-18T02:18:34;99214.03;;;6.28;100.00
22688;BME280;11511;51.514;7.080;2022-11-18T02:30:11;99218.13;;;6.14;100.00
22688;BME280;11511;51.514;7.080;2022-11-18T02:32:45;99216.47;;;6.11;100.00
22688;BME280;11511;51.514;7.080;2022-11-18T02:35:27;99226.38;;;6.03;100.00
22688;BME280;11511;51.514;7.080;2022-11-18T02:38:01;99226.34;;;5.81;100.00
22688;BME280;11511;51.514;7.080;2022-11-18T02:40:30;99231.22;;;5.68;100.00
22688;BME280;11511;51.514;7.080;2022-11-18T02:43:12;99225.81;;;5.73;100.00
22688;BME280;11511;51.514;7.080;2022-11-18T02:45:43;99225.44;;;5.82;100.00
22688;BME280;11511;51.514;7.080;2022-11-18T02:48:12;99224.31;;;6.11;100.00
22688;BME280;11511;51.514;7.080;2022-11-18T02:50:42;99230.03;;;6.21;100.00
22688;BME280;11511;51.514;7.080;2022-11-18T02:53:13;99228.94;;;6.26;100.00
22688;BME280;11511;51.514;7.080;2022-11-18T02:55:43;99236.88;;;6.45;100.00
22688;BME280;11511;51.514;7.080;2022-11-18T02:58:14;99239.34;;;6.48;100.00
22688;BME280;11511;51.514;7.080;2022-11-18T03:00:54;99236.44;;;6.56;100.00
22688;BME280;11511;51.514;7.080;2022-11-18T03:03:30;99231.03;;;6.59;100.00
22688;BME280;11511;51.514;7.080;2022-11-18T03:09:57;99239.59;;;6.62;100.00
22688;BME280;11511;51.514;7.080;2022-11-18T03:15:05;99253.81;;;6.77;100.00
22688;BME280;11511;51.514;7.080;2022-11-18T03:17:46;99253.63;;;6.82;100.00
22688;BME280;11511;51.514;7.080;2022-11-18T03:20:38;99257.78;;;6.86;100.00
22688;BME280;11511;51.514;7.080;2022-11-18T03:26:02;99267.22;;;6.90;100.00
22688;BME280;11511;51.514;7.080;2022-11-18T03:28:43;99267.22;;;6.90;100.00
22688;BME280;11511;51.514;7.080;2022-11-18T03:33:53;99275.06;;;6.90;100.00
22688;BME280;11511;51.514;7.080;2022-11-18T03:36:26;99277.75;;;6.88;100.00
22688;BME280;11511;51.514;7.080;2022-11-18T03:38:58;99276.06;;;6.87;100.00
22688;BME280;11511;51.514;7.080;2022-11-18T03:41:28;99281.28;;;6.87;100.00
22688;BME280;11511;51.514;7.080;2022-11-18T03:44:06;99283.06;;;6.87;100.00
22688;BME280;11511;51.514;7.080;2022-11-18T03:47:07;99287.59;;;6.83;100.00
22688;BME280;11511;51.514;7.080;2022-11-18T03:49:49;99289.25;;;6.84;100.00
22688;BME280;11511;51.514;7.080;2022-11-18T03:52:26;99296.94;;;6.89;100.00
22688;BME280;11511;51.514;7.080;2022-11-18T03:54:57;99296.06;;;6.88;100.00
22688;BME280;11511;51.514;7.080;2022-11-18T03:57:50;99303.13;;;6.86;100.00
22688;BME280;11511;51.514;7.080;2022-11-18T04:00:20;99294.59;;;6.83;100.00
22688;BME280;11511;51.514;7.080;2022-11-18T04:02:49;99299.03;;;6.81;100.00
22688;BME280;11511;51.514;7.080;2022-11-18T04:05:17;99297.91;;;6.86;100.00
22688;BME280;11511;51.514;7.080;2022-11-18T04:07:59;99309.38;;;6.84;100.00
22688;BME280;11511;51.514;7.080;2022-11-18T04:10:56;99307.75;;;6.81;100.00
22688;BME280;11511;51.514;7.080;2022-11-18T04:13:29;99307.00;;;6.77;100.00
22688;BME280;11511;51.514;7.080;2022-11-18T04:15:59;99317.66;;;6.73;100.00
22688;BME280;11511;51.514;7.080;2022-11-18T04:18:27;99319.63;;;6.68;100.00
22688;BME280;11511;51.514;7.080;2022-11-18T04:20:57;99318.81;;;6.66;100.00
22688;BME280;11511;51.514;7.080;2022-11-18T04:23:23;99322.53;;;6.60;100.00
22688;BME280;11511;51.514;7.080;2022-11-18T04:25:48;99322.75;;;6.56;100.00
22688;BME280;11511;51.514;7.080;2022-11-18T04:28:14;99328.97;;;6.53;100.00
22688;BME280;11511;51.514;7.080;2022-11-18T04:30:40;99327.44;;;6.48;100.00
22688;BME280;11511;51.514;7.080;2022-11-18T04:33:05;99331.88;;;6.45;100.00
22688;BME280;11511;51.514;7.080;2022-11-18T04:35:31;99326.47;;;6.50;100.00
22688;BME280;11511;51.514;7.080;2022-11-18T04:37:57;99335.28;;;6.48;100.00
22688;BME280;11511;51.514;7.080;2022-11-18T04:40:22;99341.25;;;6.51;100.00
22688;BME280;11511;51.514;7.080;2022-11-18T04:42:48;99340.34;;;6.52;100.00
22688;BME280;11511;51.514;7.080;2022-11-18T04:45:13;99338.63;;;6.51;100.00
22688;BME280;11511;51.514;7.080;2022-11-18T04:47:39;99342.16;;;6.50;100.00
22688;BME280;11511;51.514;7.080;2022-11-18T04:50:05;99339.41;;;6.53;100.00
22688;BME280;11511;51.514;7.080;2022-11-18T04:52:31;99347.00;;;6.59;100.00
22688;BME280;11511;51.514;7.080;2022-11-18T04:54:57;99343.91;;;6.50;100.00
22688;BME280;11511;51.514;7.080;2022-11-18T04:57:22;99342.50;;;6.41;100.00
22688;BME280;11511;51.514;7.080;2022-11-18T04:59:48;99353.88;;;6.40;100.00
22688;BME280;11511;51.514;7.080;2022-11-18T05:02:14;99353.53;;;6.49;100.00
22688;BME280;11511;51.514;7.080;2022-11-18T05:04:40;99353.63;;;6.68;100.00
22688;BME280;11511;51.514;7.080;2022-11-18T05:07:05;99353.44;;;6.72;100.00
22688;BME280;11511;51.514;7.080;2022-11-18T05:09:32;99364.53;;;6.79;100.00
22688;BME280;11511;51.514;7.080;2022-11-18T05:11:59;99360.44;;;6.72;100.00
22688;BME280;11511;51.514;7.080;2022-11-18T05:14:43;99368.25;;;6.73;100.00
22688;BME280;11511;51.514;7.080;2022-11-18T05:17:09;99371.81;;;6.71;100.00
22688;BME280;11511;51.514;7.080;2022-11-18T05:19:38;99372.63;;;6.73;100.00
22688;BME280;11511;51.514;7.080;2022-11-18T05:22:06;99376.75;;;6.78;100.00
22688;BME280;11511;51.514;7.080;2022-11-18T05:24:31;99382.56;;;6.85;100.00
22688;BME280;11511;51.514;7.080;2022-11-18T05:26:57;99378.06;;;6.89;100.00
22688;BME280;11511;51.514;7.080;2022-11-18T05:29:23;99386.59;;;6.94;100.00
22688;BME280;11511;51.514;7.080;2022-11-18T05:31:49;99387.44;;;6.94;100.00
22688;BME280;11511;51.514;7.080;2022-11-18T05:34:15;99395.09;;;6.99;100.00
22688;BME280;11511;51.514;7.080;2022-11-18T05:36:41;99400.28;;;7.00;100.00
22688;BME280;11511;51.514;7.080;2022-11-18T05:39:07;99406.31;;;7.02;100.00
22688;BME280;11511;51.514;7.080;2022-11-18T05:41:33;99397.59;;;7.02;100.00
22688;BME280;11511;51.514;7.080;2022-11-18T05:44:17;99401.06;;;7.02;100.00
22688;BME280;11511;51.514;7.080;2022-11-18T05:46:43;99406.13;;;7.07;100.00
22688;BME280;11511;51.514;7.080;2022-11-18T05:49:08;99404.47;;;7.04;100.00
22688;BME280;11511;51.514;7.080;2022-11-18T05:51:34;99414.09;;;7.04;100.00
22688;BME280;11511;51.514;7.080;2022-11-18T05:54:03;99413.19;;;7.05;100.00
22688;BME280;11511;51.514;7.080;2022-11-18T05:58:59;99419.09;;;7.10;100.00
22688;BME280;11511;51.514;7.080;2022-11-18T06:01:35;99420.69;;;7.12;100.00
22688;BME280;11511;51.514;7.080;2022-11-18T06:04:07;99425.94;;;7.12;100.00
22688;BME280;11511;51.514;7.080;2022-11-18T06:06:36;99425.25;;;7.09;100.00
22688;BME280;11511;51.514;7.080;2022-11-18T06:09:04;99423.84;;;7.00;100.00
22688;BME280;11511;51.514;7.080;2022-11-18T06:11:32;99429.31;;;6.94;100.00
22688;BME280;11511;51.514;7.080;2022-11-18T06:14:08;99434.00;;;6.86;100.00
22688;BME280;11511;51.514;7.080;2022-11-18T06:16:35;99428.97;;;6.82;100.00
22688;BME280;11511;51.514;7.080;2022-11-18T06:19:03;99444.97;;;6.74;100.00
22688;BME280;11511;51.514;7.080;2022-11-18T06:21:29;99441.63;;;6.70;100.00
22688;BME280;11511;51.514;7.080;2022-11-18T06:23:55;99448.56;;;6.71;100.00
22688;BME280;11511;51.514;7.080;2022-11-18T06:26:21;99453.75;;;6.73;100.00
22688;BME280;11511;51.514;7.080;2022-11-18T06:28:47;99460.44;;;6.80;100.00
22688;BME280;11511;51.514;7.080;2022-11-18T06:31:13;99452.88;;;6.72;100.00
22688;BME280;11511;51.514;7.080;2022-11-18T06:33:41;99456.41;;;6.71;100.00
22688;BME280;11511;51.514;7.080;2022-11-18T06:36:07;99459.38;;;6.62;100.00
22688;BME280;11511;51.514;7.080;2022-11-18T06:38:33;99464.31;;;6.48;100.00
22688;BME280;11511;51.514;7.080;2022-11-18T06:41:00;99465.09;;;6.50;100.00
22688;BME280;11511;51.514;7.080;2022-11-18T06:43:26;99471.97;;;6.53;100.00
22688;BME280;11511;51.514;7.080;2022-11-18T06:46:11;99479.81;;;6.53;100.00
22688;BME280;11511;51.514;7.080;2022-11-18T06:48:56;99481.22;;;6.61;100.00
22688;BME280;11511;51.514;7.080;2022-11-18T06:51:22;99483.84;;;6.61;100.00
22688;BME280;11511;51.514;7.080;2022-11-18T06:53:49;99488.66;;;6.72;100.00
22688;BME280;11511;51.514;7.080;2022-11-18T06:56:16;99499.06;;;6.73;100.00
22688;BME280;11511;51.514;7.080;2022-11-18T06:58:42;99496.41;;;6.75;100.00
22688;BME280;11511;51.514;7.080;2022-11-18T07:01:09;99497.31;;;6.74;100.00
22688;BME280;11511;51.514;7.080;2022-11-18T07:03:37;99506.88;;;6.75;100.00
22688;BME280;11511;51.514;7.080;2022-11-18T07:06:03;99508.69;;;6.73;100.00
22688;BME280;11511;51.514;7.080;2022-11-18T07:08:28;99509.44;;;6.76;100.00
22688;BME280;11511;51.514;7.080;2022-11-18T07:10:54;99517.06;;;6.83;100.00
22688;BME280;11511;51.514;7.080;2022-11-18T07:13:20;99513.63;;;6.81;100.00
22688;BME280;11511;51.514;7.080;2022-11-18T07:15:45;99522.28;;;6.83;100.00
22688;BME280;11511;51.514;7.080;2022-11-18T07:18:11;99523.19;;;6.82;100.00
22688;BME280;11511;51.514;7.080;2022-11-18T07:20:36;99525.81;;;6.82;100.00
22688;BME280;11511;51.514;7.080;2022-11-18T07:23:02;99531.00;;;6.83;100.00
22688;BME280;11511;51.514;7.080;2022-11-18T07:25:27;99533.34;;;6.89;100.00
22688;BME280;11511;51.514;7.080;2022-11-18T07:27:53;99536.69;;;6.93;100.00
22688;BME280;11511;51.514;7.080;2022-11-18T07:30:19;99534.88;;;6.95;100.00
22688;BME280;11511;51.514;7.080;2022-11-18T07:32:46;99545.22;;;6.98;100.00
22688;BME280;11511;51.514;7.080;2022-11-18T07:35:11;99551.44;;;6.95;100.00
22688;BME280;11511;51.514;7.080;2022-11-18T07:37:37;99555.94;;;6.92;100.00
22688;BME280;11511;51.514;7.080;2022-11-18T07:40:03;99564.03;;;6.86;100.00
22688;BME280;11511;51.514;7.080;2022-11-18T07:42:29;99563.38;;;6.81;100.00
22688;BME280;11511;51.514;7.080;2022-11-18T07:45:20;99573.63;;;6.85;100.00
22688;BME280;11511;51.514;7.080;2022-11-18T07:47:46;99566.41;;;6.92;100.00
22688;BME280;11511;51.514;7.080;2022-11-18T07:50:12;99567.78;;;7.02;100.00
22688;BME280;11511;51.514;7.080;2022-11-18T07:52:37;99575.00;;;7.17;100.00
22688;BME280;11511;51.514;7.080;2022-11-18T07:55:03;99584.28;;;7.26;100.00
22688;BME280;11511;51.514;7.080;2022-11-18T07:57:29;99579.66;;;7.32;100.00
22688;BME280;11511;51.514;7.080;2022-11-18T07:59:54;99583.66;;;7.41;100.00
22688;BME280;11511;51.514;7.080;2022-11-18T08:02:20;99590.19;;;7.53;100.00
22688;BME280;11511;51.514;7.080;2022-11-18T08:04:46;99600.63;;;7.54;100.00
22688;BME280;11511;51.514;7.080;2022-11-18T08:07:11;99594.84;;;7.66;100.00
22688;BME280;11511;51.514;7.080;2022-11-18T08:09:37;99610.22;;;7.75;100.00
22688;BME280;11511;51.514;7.080;2022-11-18T08:12:03;99612.66;;;7.80;100.00
22688;BME280;11511;51.514;7.080;2022-11-18T08:14:28;99615.16;;;7.83;100.00
22688;BME280;11511;51.514;7.080;2022-11-18T08:16:54;99608.44;;;7.76;100.00
22688;BME280;11511;51.514;7.080;2022-11-18T08:19:20;99610.81;;;7.82;100.00
22688;BME280;11511;51.514;7.080;2022-11-18T08:21:47;99617.59;;;7.88;100.00
22688;BME280;11511;51.514;7.080;2022-11-18T08:24:13;99627.16;;;7.89;100.00
22688;BME280;11511;51.514;7.080;2022-11-18T08:26:38;99621.28;;;8.04;100.00
22688;BME280;11511;51.514;7.080;2022-11-18T08:29:04;99618.41;;;8.10;100.00
22688;BME280;11511;51.514;7.080;2022-11-18T08:31:30;99618.72;;;8.23;100.00
22688;BME280;11511;51.514;7.080;2022-11-18T08:33:57;99621.41;;;8.21;100.00
22688;BME280;11511;51.514;7.080;2022-11-18T08:36:25;99624.13;;;8.40;100.00
22688;BME280;11511;51.514;7.080;2022-11-18T08:38:51;99628.66;;;8.36;100.00
22688;BME280;11511;51.514;7.080;2022-11-18T08:41:43;99620.56;;;8.61;100.00
22688;BME280;11511;51.514;7.080;2022-11-18T08:44:13;99618.81;;;8.80;100.00
22688;BME280;11511;51.514;7.080;2022-11-18T08:46:40;99616.72;;;8.89;100.00
22688;BME280;11511;51.514;7.080;2022-11-18T08:49:06;99610.25;;;8.96;100.00
22688;BME280;11511;51.514;7.080;2022-11-18T08:51:32;99610.25;;;8.96;100.00
22688;BME280;11511;51.514;7.080;2022-11-18T08:53:57;99604.81;;;9.00;100.00
22688;BME280;11511;51.514;7.080;2022-11-18T08:56:23;99608.34;;;8.99;100.00
22688;BME280;11511;51.514;7.080;2022-11-18T08:58:50;99612.81;;;8.97;100.00
22688;BME280;11511;51.514;7.080;2022-11-18T09:01:16;99611.53;;;9.06;100.00
22688;BME280;11511;51.514;7.080;2022-11-18T09:03:41;99613.38;;;9.04;100.00
22688;BME280;11511;51.514;7.080;2022-11-18T09:06:13;99624.59;;;9.07;100.00
22688;BME280;11511;51.514;7.080;2022-11-18T09:08:39;99624.38;;;9.31;100.00
22688;BME280;11511;51.514;7.080;2022-11-18T09:11:10;99623.13;;;9.21;100.00
22688;BME280;11511;51.514;7.080;2022-11-18T09:13:37;99636.66;;;9.30;100.00
22688;BME280;11511;51.514;7.080;2022-11-18T09:16:03;99633.66;;;9.38;100.00
22688;BME280;11511;51.514;7.080;2022-11-18T09:18:29;99627.13;;;9.46;100.00
22688;BME280;11511;51.514;7.080;2022-11-18T09:21:03;99636.31;;;9.38;100.00
22688;BME280;11511;51.514;7.080;2022-11-18T09:23:30;99624.59;;;9.45;100.00
22688;BME280;11511;51.514;7.080;2022-11-18T09:26:08;99637.09;;;9.76;100.00
22688;BME280;11511;51.514;7.080;2022-11-18T09:28:34;99633.06;;;9.86;100.00
22688;BME280;11511;51.514;7.080;2022-11-18T09:31:11;99640.97;;;9.86;100.00
22688;BME280;11511;51.514;7.080;2022-11-18T09:33:38;99639.81;;;9.92;100.00
22688;BME280;11511;51.514;7.080;2022-11-18T09:36:20;99647.47;;;9.79;100.00
22688;BME280;11511;51.514;7.080;2022-11-18T09:38:46;99647.78;;;9.90;100.00
22688;BME280;11511;51.514;7.080;2022-11-18T09:41:35;99648.34;;;9.97;100.00
22688;BME280;11511;51.514;7.080;2022-11-18T09:47:17;99653.19;;;9.87;100.00
22688;BME280;11511;51.514;7.080;2022-11-18T09:49:45;99651.25;;;10.27;100.00
22688;BME280;11511;51.514;7.080;2022-11-18T09:52:26;99660.63;;;10.49;100.00
22688;BME280;11511;51.514;7.080;2022-11-18T09:54:53;99661.38;;;10.51;100.00
22688;BME280;11511;51.514;7.080;2022-11-18T09:57:22;99674.88;;;10.45;100.00
22688;BME280;11511;51.514;7.080;2022-11-18T09:59:49;99676.66;;;10.28;100.00
22688;BME280;11511;51.514;7.080;2022-11-18T10:04:40;99680.53;;;10.55;100.00
22688;BME280;11511;51.514;7.080;2022-11-18T10:07:15;99683.03;;;10.74;100.00
22688;BME280;11511;51.514;7.080;2022-11-18T10:09:44;99685.41;;;10.63;100.00
22688;BME280;11511;51.514;7.080;2022-11-18T10:12:36;99680.44;;;10.57;100.00
22688;BME280;11511;51.514;7.080;2022-11-18T10:15:20;99683.19;;;11.37;100.00
22688;BME280;11511;51.514;7.080;2022-11-18T10:18:19;99678.34;;;12.38;100.00
22688;BME280;11511;51.514;7.080;2022-11-18T10:21:00;99677.66;;;12.64;100.00
22688;BME280;11511;51.514;7.080;2022-11-18T10:23:51;99680.41;;;12.77;100.00
22688;BME280;11511;51.514;7.080;2022-11-18T10:28:58;99682.69;;;12.83;100.00
22688;BME280;11511;51.514;7.080;2022-11-18T10:31:24;99690.06;;;12.92;100.00
22688;BME280;11511;51.514;7.080;2022-11-18T10:33:58;99688.16;;;13.65;100.00
22688;BME280;11511;51.514;7.080;2022-11-18T10:36:25;99687.03;;;13.41;100.00
22688;BME280;11511;51.514;7.080;2022-11-18T10:39:05;99691.88;;;14.56;100.00
22688;BME280;11511;51.514;7.080;2022-11-18T10:41:37;99687.69;;;16.03;100.00
22688;BME280;11511;51.514;7.080;2022-11-18T10:44:04;99699.03;;;15.19;100.00
22688;BME280;11511;51.514;7.080;2022-11-18T10:46:34;99695.09;;;15.24;100.00
22688;BME280;11511;51.514;7.080;2022-11-18T10:51:36;99693.31;;;16.81;100.00
22688;BME280;11511;51.514;7.080;2022-11-18T10:56:51;99696.00;;;15.62;100.00
22688;BME280;11511;51.514;7.080;2022-11-18T10:59:29;99692.50;;;17.25;100.00
22688;BME280;11511;51.514;7.080;2022-11-18T11:02:00;99698.19;;;18.83;95.80
22688;BME280;11511;51.514;7.080;2022-11-18T11:04:28;99688.50;;;21.09;88.15
22688;BME280;11511;51.514;7.080;2022-11-18T11:06:56;99695.84;;;21.53;79.58
22688;BME280;11511;51.514;7.080;2022-11-18T11:09:27;99697.41;;;21.56;78.47
22688;BME280;11511;51.514;7.080;2022-11-18T11:12:02;99708.13;;;19.53;84.48
22688;BME280;11511;51.514;7.080;2022-11-18T11:14:41;99710.19;;;15.86;100.00
22688;BME280;11511;51.514;7.080;2022-11-18T11:17:26;99707.09;;;14.92;100.00
22688;BME280;11511;51.514;7.080;2022-11-18T11:20:19;99710.31;;;14.18;100.00
22688;BME280;11511;51.514;7.080;2022-11-18T11:22:46;99709.28;;;14.33;100.00
22688;BME280;11511;51.514;7.080;2022-11-18T11:25:14;99706.56;;;14.74;100.00
22688;BME280;11511;51.514;7.080;2022-11-18T11:27:51;99706.59;;;13.67;100.00
22688;BME280;11511;51.514;7.080;2022-11-18T11:30:21;99707.53;;;13.51;100.00
22688;BME280;11511;51.514;7.080;2022-11-18T11:33:03;99710.50;;;12.14;100.00
22688;BME280;11511;51.514;7.080;2022-11-18T11:38:17;99712.75;;;13.25;100.00
22688;BME280;11511;51.514;7.080;2022-11-18T11:41:01;99701.94;;;17.29;100.00
22688;BME280;11511;51.514;7.080;2022-11-18T11:43:44;99707.53;;;18.99;98.09
22688;BME280;11511;51.514;7.080;2022-11-18T11:46:26;99708.91;;;19.14;95.43
22688;BME280;11511;51.514;7.080;2022-11-18T11:51:52;99714.16;;;17.87;98.82
22688;BME280;11511;51.514;7.080;2022-11-18T11:54:36;99722.44;;;18.59;87.81
22688;BME280;11511;51.514;7.080;2022-11-18T12:00:07;99725.34;;;18.56;89.18
22688;BME280;11511;51.514;7.080;2022-11-18T12:05:30;99724.94;;;16.38;100.00
22688;BME280;11511;51.514;7.080;2022-11-18T12:08:22;99723.72;;;17.56;98.76
22688;BME280;11511;51.514;7.080;2022-11-18T12:10:55;99725.13;;;18.48;92.06
22688;BME280;11511;51.514;7.080;2022-11-18T12:13:53;99720.47;;;18.30;91.80
22688;BME280;11511;51.514;7.080;2022-11-18T12:16:44;99718.28;;;18.87;91.98
22688;BME280;11511;51.514;7.080;2022-11-18T12:19:17;99720.75;;;19.51;88.31
22688;BME280;11511;51.514;7.080;2022-11-18T12:26:42;99716.31;;;18.89;89.66
22688;BME280;11511;51.514;7.080;2022-11-18T12:31:45;99733.44;;;14.29;100.00
22688;BME280;11511;51.514;7.080;2022-11-18T12:36:55;99731.53;;;13.63;100.00
22688;BME280;11511;51.514;7.080;2022-11-18T12:41:57;99728.50;;;16.25;100.00
22688;BME280;11511;51.514;7.080;2022-11-18T12:44:45;99731.59;;;15.21;100.00
22688;BME280;11511;51.514;7.080;2022-11-18T12:47:12;99737.28;;;14.37;100.00
22688;BME280;11511;51.514;7.080;2022-11-18T12:54:55;99741.38;;;13.32;100.00
22688;BME280;11511;51.514;7.080;2022-11-18T12:57:28;99739.19;;;13.53;100.00
22688;BME280;11511;51.514;7.080;2022-11-18T12:59:55;99740.06;;;13.25;100.00
22688;BME280;11511;51.514;7.080;2022-11-18T13:02:28;99747.41;;;13.63;100.00
22688;BME280;11511;51.514;7.080;2022-11-18T13:05:13;99741.94;;;13.51;100.00
22688;BME280;11511;51.514;7.080;2022-11-18T13:07:50;99738.38;;;12.94;100.00
22688;BME280;11511;51.514;7.080;2022-11-18T13:10:39;99742.03;;;12.77;100.00
22688;BME280;11511;51.514;7.080;2022-11-18T13:15:45;99748.84;;;12.81;100.00
22688;BME280;11511;51.514;7.080;2022-11-18T13:18:29;99747.22;;;13.51;100.00
22688;BME280;11511;51.514;7.080;2022-11-18T13:20:57;99752.44;;;12.95;100.00
22688;BME280;11511;51.514;7.080;2022-11-18T13:23:29;99752.03;;;12.42;100.00
22688;BME280;11511;51.514;7.080;2022-11-18T13:26:27;99755.38;;;12.30;100.00
22688;BME280;11511;51.514;7.080;2022-11-18T13:34:28;99753.09;;;12.24;100.00
22688;BME280;11511;51.514;7.080;2022-11-18T13:36:56;99751.91;;;12.30;100.00
22688;BME280;11511;51.514;7.080;2022-11-18T13:39:29;99761.28;;;11.88;100.00
22688;BME280;11511;51.514;7.080;2022-11-18T13:42:03;99769.56;;;11.65;100.00
22688;BME280;11511;51.514;7.080;2022-11-18T13:44:34;99769.59;;;11.80;100.00
22688;BME280;11511;51.514;7.080;2022-11-18T13:53:07;99776.53;;;11.17;100.00
22688;BME280;11511;51.514;7.080;2022-11-18T13:55:45;99769.03;;;11.09;100.00
22688;BME280;11511;51.514;7.080;2022-11-18T14:00:54;99769.25;;;10.70;100.00
22688;BME280;11511;51.514;7.080;2022-11-18T14:06:22;99770.50;;;10.46;100.00
22688;BME280;11511;51.514;7.080;2022-11-18T14:08:48;99775.22;;;10.39;100.00
22688;BME280;11511;51.514;7.080;2022-11-18T14:11:33;99777.56;;;10.80;100.00
22688;BME280;11511;51.514;7.080;2022-11-18T14:14:00;99776.47;;;11.18;100.00
22688;BME280;11511;51.514;7.080;2022-11-18T14:16:33;99764.25;;;11.49;100.00
22688;BME280;11511;51.514;7.080;2022-11-18T14:19:00;99773.44;;;11.75;100.00
22688;BME280;11511;51.514;7.080;2022-11-18T14:21:32;99781.91;;;11.31;100.00
22688;BME280;11511;51.514;7.080;2022-11-18T14:23:58;99777.31;;;11.02;100.00
22688;BME280;11511;51.514;7.080;2022-11-18T14:26:26;99775.53;;;11.19;100.00
22688;BME280;11511;51.514;7.080;2022-11-18T14:28:54;99779.41;;;11.45;100.00
22688;BME280;11511;51.514;7.080;2022-11-18T14:34:22;99780.94;;;10.99;100.00
22688;BME280;11511;51.514;7.080;2022-11-18T14:36:50;99784.00;;;10.92;100.00
22688;BME280;11511;51.514;7.080;2022-11-18T14:39:27;99790.44;;;10.86;100.00
22688;BME280;11511;51.514;7.080;2022-11-18T14:41:53;99790.59;;;10.83;100.00
22688;BME280;11511;51.514;7.080;2022-11-18T14:44:20;99791.22;;;10.88;100.00
22688;BME280;11511;51.514;7.080;2022-11-18T14:46:49;99799.50;;;10.80;100.00
22688;BME280;11511;51.514;7.080;2022-11-18T14:49:20;99802.34;;;10.59;100.00
22688;BME280;11511;51.514;7.080;2022-11-18T14:51:47;99798.75;;;10.42;100.00